Craigmont, ID (83523)

6:20 PM PDT on July 25, 2016 (GMT -0700)
Highland Schools | | Change Station

Elev 3783 ft 46.24 °N, 116.47 °W | Updated 6 seconds ago

Clear
Clear
83.0 °F
Feels Like 81 °F
N
4.6
Wind Variable Wind from NW
Gusts 4.6 mph

Today
High -- | Low -- °F
--% Chance of Precip.
Yesterday
High -- | Low -- °F
Precip. -- in
Pressure 30.03 in
Visibility 10.0 miles
Clouds Clear
Heat Index 81 °F
Dew Point 50 °F
Humidity 32%
Rainfall 0.00 in
Snow Depth Not available.
5:20 AM 8:23 PM
Waning Gibbous, 60% visible
METAR KGIC 260115Z AUTO 05005KT 10SM CLR 30/08 A3003 RMK AO1
Pressure 30.03 in
Visibility 10.0 miles
Clouds Clear
Heat Index 81 °F
Dew Point 50 °F
Humidity 32%
Rainfall 0.00 in
Snow Depth Not available.
5:20 AM 8:23 PM
Waning Gibbous, 60% visible
METAR KGIC 260115Z AUTO 05005KT 10SM CLR 30/08 A3003 RMK AO1

10-Day Weather Forecast

Almanac

Astronomy

Jul. 25, 2016 Rise Set
Actual Time
Civil Twilight
Nautical Twilight
Astronomical Twilight
Moon
Length of Visible Light
Length of Day
Tomorrow will be .
, % of the Moon is Illuminated

Today's Extremes

State Highs State Lows

Community

WunderPhotos

Upload Photos

1,927,484 photos uploaded!

WunderBlog® & News

Nearby

Air Quality

  Air Quality AQ Index Pollutant
Not available.

Snow Depth

Station Depth Elevation

Earthquake Activity

City Distance Mag. Time & Date
Minimum magnitude displayed is 2.5.

Coastal Water Temperatures

Place Temperature

Stations

Nearby Weather Stations

Station Location Temp. Windchill Dew Point Humidity Wind Precip. Elev Updated Type
                   

Watches & Warnings

There are currently no watches in effect.